sensor_id;sensor_type;location;lat;lon;timestamp;pressure;altitude;pressure_sealevel;temperature;humidity
76011;BME280;64701;43.536;1.478;2023-04-24T00:00:12;99480.03;;;12.44;90.00
76011;BME280;64701;43.536;1.478;2023-04-24T00:02:40;99481.06;;;12.43;90.39
76011;BME280;64701;43.536;1.478;2023-04-24T00:05:05;99478.41;;;12.43;90.19
76011;BME280;64701;43.536;1.478;2023-04-24T00:07:31;99475.13;;;12.41;90.88
76011;BME280;64701;43.536;1.478;2023-04-24T00:09:56;99479.41;;;12.42;91.27
76011;BME280;64701;43.536;1.478;2023-04-24T00:12:22;99476.75;;;12.42;90.80
76011;BME280;64701;43.536;1.478;2023-04-24T00:14:47;99478.78;;;12.40;91.28
76011;BME280;64701;43.536;1.478;2023-04-24T00:17:12;99483.09;;;12.41;91.67
76011;BME280;64701;43.536;1.478;2023-04-24T00:19:38;99481.44;;;12.40;91.90
76011;BME280;64701;43.536;1.478;2023-04-24T00:22:03;99477.19;;;12.39;91.56
76011;BME280;64701;43.536;1.478;2023-04-24T00:24:28;99479.03;;;12.39;92.50
76011;BME280;64701;43.536;1.478;2023-04-24T00:26:54;99474.31;;;12.41;92.07
76011;BME280;64701;43.536;1.478;2023-04-24T00:29:19;99476.97;;;12.41;92.26
76011;BME280;64701;43.536;1.478;2023-04-24T00:31:44;99478.41;;;12.43;92.05
76011;BME280;64701;43.536;1.478;2023-04-24T00:34:10;99479.22;;;12.44;91.86
76011;BME280;64701;43.536;1.478;2023-04-24T00:36:36;99485.34;;;12.44;91.48
76011;BME280;64701;43.536;1.478;2023-04-24T00:39:02;99485.75;;;12.41;91.50
76011;BME280;64701;43.536;1.478;2023-04-24T00:41:27;99480.84;;;12.38;91.81
76011;BME280;64701;43.536;1.478;2023-04-24T00:43:52;99475.13;;;12.35;91.72
76011;BME280;64701;43.536;1.478;2023-04-24T00:46:18;99481.66;;;12.39;90.87
76011;BME280;64701;43.536;1.478;2023-04-24T00:48:43;99486.56;;;12.35;91.05
76011;BME280;64701;43.536;1.478;2023-04-24T00:51:09;99488.19;;;12.36;90.77
76011;BME280;64701;43.536;1.478;2023-04-24T00:53:34;99486.16;;;12.38;89.85
76011;BME280;64701;43.536;1.478;2023-04-24T00:56:00;99487.56;;;12.34;89.92
76011;BME280;64701;43.536;1.478;2023-04-24T00:58:25;99479.22;;;12.31;90.53
76011;BME280;64701;43.536;1.478;2023-04-24T01:00:51;99483.69;;;12.23;91.14
76011;BME280;64701;43.536;1.478;2023-04-24T01:03:21;99494.75;;;12.27;90.40
76011;BME280;64701;43.536;1.478;2023-04-24T01:05:47;99484.31;;;12.25;90.12
76011;BME280;64701;43.536;1.478;2023-04-24T01:08:13;99482.06;;;12.22;89.87
76011;BME280;64701;43.536;1.478;2023-04-24T01:10:40;99475.94;;;12.22;89.61
76011;BME280;64701;43.536;1.478;2023-04-24T01:13:05;99474.31;;;12.21;89.69
76011;BME280;64701;43.536;1.478;2023-04-24T01:15:32;99479.63;;;12.21;89.00
76011;BME280;64701;43.536;1.478;2023-04-24T01:17:58;99471.03;;;12.19;89.09
76011;BME280;64701;43.536;1.478;2023-04-24T01:20:23;99475.53;;;12.18;89.68
76011;BME280;64701;43.536;1.478;2023-04-24T01:22:49;99477.97;;;12.13;89.73
76011;BME280;64701;43.536;1.478;2023-04-24T01:25:14;99482.03;;;12.16;88.83
76011;BME280;64701;43.536;1.478;2023-04-24T01:27:40;99476.72;;;12.16;89.01
76011;BME280;64701;43.536;1.478;2023-04-24T01:30:06;99470.22;;;12.18;88.54
76011;BME280;64701;43.536;1.478;2023-04-24T01:32:31;99462.06;;;12.20;88.72
76011;BME280;64701;43.536;1.478;2023-04-24T01:34:57;99469.19;;;12.19;88.92
76011;BME280;64701;43.536;1.478;2023-04-24T01:37:22;99468.56;;;12.17;88.68
76011;BME280;64701;43.536;1.478;2023-04-24T01:39:47;99465.72;;;12.19;88.84
76011;BME280;64701;43.536;1.478;2023-04-24T01:42:13;99465.72;;;12.19;88.88
76011;BME280;64701;43.536;1.478;2023-04-24T01:44:39;99477.97;;;12.20;88.81
76011;BME280;64701;43.536;1.478;2023-04-24T01:47:05;99470.84;;;12.20;88.80
76011;BME280;64701;43.536;1.478;2023-04-24T01:49:30;99472.25;;;12.23;88.12
76011;BME280;64701;43.536;1.478;2023-04-24T01:51:56;99476.56;;;12.24;88.20
76011;BME280;64701;43.536;1.478;2023-04-24T01:54:22;99472.25;;;12.23;88.46
76011;BME280;64701;43.536;1.478;2023-04-24T01:56:47;99469.19;;;12.19;88.03
76011;BME280;64701;43.536;1.478;2023-04-24T01:59:12;99472.69;;;12.20;87.64
76011;BME280;64701;43.536;1.478;2023-04-24T02:01:38;99472.88;;;12.18;87.76
76011;BME280;64701;43.536;1.478;2023-04-24T02:04:04;99470.22;;;12.18;87.86
76011;BME280;64701;43.536;1.478;2023-04-24T02:06:29;99475.31;;;12.13;87.94
76011;BME280;64701;43.536;1.478;2023-04-24T02:08:56;99473.88;;;12.11;87.76
76011;BME280;64701;43.536;1.478;2023-04-24T02:11:21;99477.13;;;12.06;87.63
76011;BME280;64701;43.536;1.478;2023-04-24T02:13:46;99473.88;;;12.04;87.67
76011;BME280;64701;43.536;1.478;2023-04-24T02:16:12;99482.44;;;12.00;87.70
76011;BME280;64701;43.536;1.478;2023-04-24T02:18:37;99481.81;;;11.98;87.97
76011;BME280;64701;43.536;1.478;2023-04-24T02:21:02;99479.16;;;11.98;88.09
76011;BME280;64701;43.536;1.478;2023-04-24T02:23:28;99484.47;;;11.98;87.55
76011;BME280;64701;43.536;1.478;2023-04-24T02:25:53;99479.56;;;11.95;87.95
76011;BME280;64701;43.536;1.478;2023-04-24T02:28:18;99478.75;;;11.94;88.15
76011;BME280;64701;43.536;1.478;2023-04-24T02:30:44;99485.69;;;11.95;87.44
76011;BME280;64701;43.536;1.478;2023-04-24T02:33:10;99492.22;;;11.93;88.18
76011;BME280;64701;43.536;1.478;2023-04-24T02:35:36;99484.03;;;11.88;88.20
76011;BME280;64701;43.536;1.478;2023-04-24T02:38:01;99487.72;;;11.86;88.58
76011;BME280;64701;43.536;1.478;2023-04-24T02:40:26;99479.16;;;11.84;88.39
76011;BME280;64701;43.536;1.478;2023-04-24T02:42:51;99481.19;;;11.82;89.03
76011;BME280;64701;43.536;1.478;2023-04-24T02:45:17;99483.22;;;11.80;88.64
76011;BME280;64701;43.536;1.478;2023-04-24T02:47:42;99483.63;;;11.77;89.54
76011;BME280;64701;43.536;1.478;2023-04-24T02:50:07;99474.84;;;11.77;89.78
76011;BME280;64701;43.536;1.478;2023-04-24T02:52:33;99469.72;;;11.75;89.52
76011;BME280;64701;43.536;1.478;2023-04-24T02:54:58;99468.28;;;11.73;89.81
76011;BME280;64701;43.536;1.478;2023-04-24T02:57:24;99479.28;;;11.70;90.42
76011;BME280;64701;43.536;1.478;2023-04-24T02:59:49;99482.41;;;11.73;89.60
76011;BME280;64701;43.536;1.478;2023-04-24T03:02:14;99480.34;;;11.75;89.72
76011;BME280;64701;43.536;1.478;2023-04-24T03:04:40;99494.22;;;11.77;89.75
76011;BME280;64701;43.536;1.478;2023-04-24T03:07:05;99482.59;;;11.78;89.86
76011;BME280;64701;43.536;1.478;2023-04-24T03:09:31;99486.91;;;11.79;90.14
76011;BME280;64701;43.536;1.478;2023-04-24T03:11:56;99492.63;;;11.83;89.25
76011;BME280;64701;43.536;1.478;2023-04-24T03:14:22;99491.16;;;11.80;89.54
76011;BME280;64701;43.536;1.478;2023-04-24T03:16:47;99488.94;;;11.84;89.33
76011;BME280;64701;43.536;1.478;2023-04-24T03:19:12;99494.25;;;11.84;90.07
76011;BME280;64701;43.536;1.478;2023-04-24T03:21:38;99487.13;;;11.84;89.95
76011;BME280;64701;43.536;1.478;2023-04-24T03:24:06;99475.88;;;11.82;90.84
76011;BME280;64701;43.536;1.478;2023-04-24T03:26:31;99477.50;;;11.83;90.76
76011;BME280;64701;43.536;1.478;2023-04-24T03:28:57;99486.69;;;11.88;90.72
76011;BME280;64701;43.536;1.478;2023-04-24T03:31:22;99488.97;;;11.91;90.35
76011;BME280;64701;43.536;1.478;2023-04-24T03:33:47;99485.28;;;11.92;89.56
76011;BME280;64701;43.536;1.478;2023-04-24T03:36:12;99489.78;;;11.91;89.44
76011;BME280;64701;43.536;1.478;2023-04-24T03:38:38;99476.72;;;11.90;90.01
76011;BME280;64701;43.536;1.478;2023-04-24T03:41:03;99474.44;;;11.86;89.88
76011;BME280;64701;43.536;1.478;2023-04-24T03:43:28;99476.50;;;11.84;89.90
76011;BME280;64701;43.536;1.478;2023-04-24T03:45:54;99472.59;;;11.80;90.37
76011;BME280;64701;43.536;1.478;2023-04-24T03:48:19;99470.97;;;11.79;90.05
76011;BME280;64701;43.536;1.478;2023-04-24T03:50:44;99466.69;;;11.78;89.52
76011;BME280;64701;43.536;1.478;2023-04-24T03:53:10;99469.34;;;11.78;89.59
76011;BME280;64701;43.536;1.478;2023-04-24T03:55:35;99473.00;;;11.77;89.59
76011;BME280;64701;43.536;1.478;2023-04-24T03:58:01;99483.63;;;11.77;89.20
76011;BME280;64701;43.536;1.478;2023-04-24T04:00:26;99487.28;;;11.76;89.85
76011;BME280;64701;43.536;1.478;2023-04-24T04:02:51;99481.53;;;11.73;89.89
76011;BME280;64701;43.536;1.478;2023-04-24T04:05:16;99486.03;;;11.72;90.56
76011;BME280;64701;43.536;1.478;2023-04-24T04:07:42;99490.06;;;11.68;91.21
76011;BME280;64701;43.536;1.478;2023-04-24T04:10:07;99487.41;;;11.68;90.80
76011;BME280;64701;43.536;1.478;2023-04-24T04:12:32;99487.22;;;11.70;90.93
76011;BME280;64701;43.536;1.478;2023-04-24T04:14:58;99489.25;;;11.68;90.93
76011;BME280;64701;43.536;1.478;2023-04-24T04:17:23;99492.13;;;11.66;90.49
76011;BME280;64701;43.536;1.478;2023-04-24T04:19:48;99486.81;;;11.66;91.19
76011;BME280;64701;43.536;1.478;2023-04-24T04:22:13;99487.84;;;11.65;90.83
76011;BME280;64701;43.536;1.478;2023-04-24T04:24:39;99486.00;;;11.66;90.55
76011;BME280;64701;43.536;1.478;2023-04-24T04:27:05;99489.66;;;11.65;90.85
76011;BME280;64701;43.536;1.478;2023-04-24T04:29:31;99487.66;;;11.67;91.32
76011;BME280;64701;43.536;1.478;2023-04-24T04:31:56;99489.25;;;11.68;90.97
76011;BME280;64701;43.536;1.478;2023-04-24T04:34:22;99497.03;;;11.69;90.75
76011;BME280;64701;43.536;1.478;2023-04-24T04:36:47;99491.34;;;11.72;90.38
76011;BME280;64701;43.536;1.478;2023-04-24T04:39:13;99496.63;;;11.72;90.57
76011;BME280;64701;43.536;1.478;2023-04-24T04:41:40;99497.66;;;11.71;90.35
76011;BME280;64701;43.536;1.478;2023-04-24T04:44:05;99502.13;;;11.71;90.20
76011;BME280;64701;43.536;1.478;2023-04-24T04:46:31;99501.28;;;11.64;90.94
76011;BME280;64701;43.536;1.478;2023-04-24T04:49:01;99506.41;;;11.65;91.20
76011;BME280;64701;43.536;1.478;2023-04-24T04:51:27;99514.75;;;11.62;90.90
76011;BME280;64701;43.536;1.478;2023-04-24T04:53:52;99513.31;;;11.60;90.76
76011;BME280;64701;43.536;1.478;2023-04-24T04:56:18;99519.81;;;11.57;91.66
76011;BME280;64701;43.536;1.478;2023-04-24T04:58:43;99520.03;;;11.56;91.93
76011;BME280;64701;43.536;1.478;2023-04-24T05:01:08;99527.56;;;11.52;92.38
76011;BME280;64701;43.536;1.478;2023-04-24T05:03:33;99522.69;;;11.56;92.00
76011;BME280;64701;43.536;1.478;2023-04-24T05:05:59;99521.88;;;11.55;92.30
76011;BME280;64701;43.536;1.478;2023-04-24T05:08:24;99528.00;;;11.56;92.62
76011;BME280;64701;43.536;1.478;2023-04-24T05:10:50;99526.75;;;11.58;92.53
76011;BME280;64701;43.536;1.478;2023-04-24T05:13:15;99534.13;;;11.63;92.27
76011;BME280;64701;43.536;1.478;2023-04-24T05:15:40;99530.66;;;11.62;92.18
76011;BME280;64701;43.536;1.478;2023-04-24T05:18:06;99529.25;;;11.66;91.60
76011;BME280;64701;43.536;1.478;2023-04-24T05:20:31;99532.50;;;11.68;91.78
76011;BME280;64701;43.536;1.478;2023-04-24T05:22:56;99535.78;;;11.70;91.95
76011;BME280;64701;43.536;1.478;2023-04-24T05:25:21;99542.56;;;11.73;91.83
76011;BME280;64701;43.536;1.478;2023-04-24T05:27:47;99535.44;;;11.73;92.27
76011;BME280;64701;43.536;1.478;2023-04-24T05:30:12;99545.66;;;11.76;92.77
76011;BME280;64701;43.536;1.478;2023-04-24T05:32:38;99547.09;;;11.79;92.73
76011;BME280;64701;43.536;1.478;2023-04-24T05:35:03;99551.78;;;11.83;92.15
76011;BME280;64701;43.536;1.478;2023-04-24T05:37:29;99554.44;;;11.83;93.11
76011;BME280;64701;43.536;1.478;2023-04-24T05:39:54;99550.16;;;11.82;93.56
76011;BME280;64701;43.536;1.478;2023-04-24T05:42:19;99555.47;;;11.82;93.69
76011;BME280;64701;43.536;1.478;2023-04-24T05:44:45;99556.69;;;11.86;93.82
76011;BME280;64701;43.536;1.478;2023-04-24T05:47:10;99552.63;;;11.91;93.60
76011;BME280;64701;43.536;1.478;2023-04-24T05:49:35;99552.41;;;11.92;93.64
76011;BME280;64701;43.536;1.478;2023-04-24T05:52:01;99552.63;;;11.91;94.05
76011;BME280;64701;43.536;1.478;2023-04-24T05:54:26;99564.91;;;11.92;93.82
76011;BME280;64701;43.536;1.478;2023-04-24T05:56:51;99562.84;;;11.94;93.50
76011;BME280;64701;43.536;1.478;2023-04-24T05:59:16;99562.25;;;11.98;93.34
76011;BME280;64701;43.536;1.478;2023-04-24T06:01:42;99563.28;;;11.97;93.61
76011;BME280;64701;43.536;1.478;2023-04-24T06:04:07;99569.00;;;12.01;93.74
76011;BME280;64701;43.536;1.478;2023-04-24T06:06:32;99568.56;;;12.04;93.86
76011;BME280;64701;43.536;1.478;2023-04-24T06:08:58;99564.13;;;12.11;93.23
76011;BME280;64701;43.536;1.478;2023-04-24T06:11:23;99572.28;;;12.16;93.44
76011;BME280;64701;43.536;1.478;2023-04-24T06:13:49;99575.97;;;12.21;92.85
76011;BME280;64701;43.536;1.478;2023-04-24T06:16:15;99578.88;;;12.26;92.61
76011;BME280;64701;43.536;1.478;2023-04-24T06:18:40;99581.13;;;12.30;92.60
76011;BME280;64701;43.536;1.478;2023-04-24T06:21:06;99587.66;;;12.27;92.22
76011;BME280;64701;43.536;1.478;2023-04-24T06:23:31;99589.28;;;12.28;92.33
76011;BME280;64701;43.536;1.478;2023-04-24T06:25:57;99595.63;;;12.27;92.71
76011;BME280;64701;43.536;1.478;2023-04-24T06:28:23;99600.13;;;12.33;91.97
76011;BME280;64701;43.536;1.478;2023-04-24T06:30:48;99604.00;;;12.37;92.63
76011;BME280;64701;43.536;1.478;2023-04-24T06:33:13;99591.38;;;12.39;92.49
76011;BME280;64701;43.536;1.478;2023-04-24T06:35:39;99601.78;;;12.47;92.13
76011;BME280;64701;43.536;1.478;2023-04-24T06:38:04;99601.38;;;12.50;92.18
76011;BME280;64701;43.536;1.478;2023-04-24T06:40:29;99612.22;;;12.55;92.30
76011;BME280;64701;43.536;1.478;2023-04-24T06:42:55;99613.66;;;12.64;91.71
76011;BME280;64701;43.536;1.478;2023-04-24T06:45:20;99616.50;;;12.69;91.93
76011;BME280;64701;43.536;1.478;2023-04-24T06:47:46;99613.47;;;12.73;91.38
76011;BME280;64701;43.536;1.478;2023-04-24T06:50:11;99619.81;;;12.78;91.41
76011;BME280;64701;43.536;1.478;2023-04-24T06:52:37;99616.13;;;12.86;91.36
76011;BME280;64701;43.536;1.478;2023-04-24T06:55:03;99621.44;;;12.86;90.95
76011;BME280;64701;43.536;1.478;2023-04-24T06:57:28;99620.63;;;12.92;90.83
76011;BME280;64701;43.536;1.478;2023-04-24T06:59:54;99623.88;;;12.94;90.73
76011;BME280;64701;43.536;1.478;2023-04-24T07:02:19;99624.72;;;12.94;90.64
76011;BME280;64701;43.536;1.478;2023-04-24T07:04:44;99627.16;;;12.96;90.32
76011;BME280;64701;43.536;1.478;2023-04-24T07:07:12;99634.13;;;12.97;90.57
76011;BME280;64701;43.536;1.478;2023-04-24T07:09:39;99631.66;;;13.02;90.25
76011;BME280;64701;43.536;1.478;2023-04-24T07:12:06;99629.00;;;13.02;90.07
76011;BME280;64701;43.536;1.478;2023-04-24T07:14:32;99644.13;;;13.08;89.66
76011;BME280;64701;43.536;1.478;2023-04-24T07:16:57;99632.88;;;13.06;89.46
76011;BME280;64701;43.536;1.478;2023-04-24T07:19:23;99635.16;;;13.09;89.47
76011;BME280;64701;43.536;1.478;2023-04-24T07:21:48;99628.22;;;13.21;89.11
76011;BME280;64701;43.536;1.478;2023-04-24T07:24:13;99628.41;;;13.33;89.12
76011;BME280;64701;43.536;1.478;2023-04-24T07:26:39;99631.91;;;13.33;88.12
76011;BME280;64701;43.536;1.478;2023-04-24T07:29:05;99631.91;;;13.27;88.28
76011;BME280;64701;43.536;1.478;2023-04-24T07:31:30;99631.91;;;13.33;88.20
76011;BME280;64701;43.536;1.478;2023-04-24T07:33:55;99632.09;;;13.38;88.01
76011;BME280;64701;43.536;1.478;2023-04-24T07:36:22;99634.13;;;13.49;87.40
76011;BME280;64701;43.536;1.478;2023-04-24T07:38:49;99639.81;;;13.60;87.66
76011;BME280;64701;43.536;1.478;2023-04-24T07:41:14;99635.72;;;13.64;86.87
76011;BME280;64701;43.536;1.478;2023-04-24T07:43:39;99643.09;;;13.48;87.56
76011;BME280;64701;43.536;1.478;2023-04-24T07:46:05;99648.88;;;13.45;87.73
76011;BME280;64701;43.536;1.478;2023-04-24T07:48:31;99651.09;;;13.29;87.91
76011;BME280;64701;43.536;1.478;2023-04-24T07:50:56;99650.91;;;13.30;88.30
76011;BME280;64701;43.536;1.478;2023-04-24T07:53:21;99643.94;;;13.29;87.56
76011;BME280;64701;43.536;1.478;2023-04-24T07:55:46;99643.94;;;13.29;87.73
76011;BME280;64701;43.536;1.478;2023-04-24T07:58:12;99642.72;;;13.32;87.68
76011;BME280;64701;43.536;1.478;2023-04-24T08:00:37;99650.91;;;13.43;87.86
76011;BME280;64701;43.536;1.478;2023-04-24T08:03:02;99644.75;;;13.49;87.21
76011;BME280;64701;43.536;1.478;2023-04-24T08:05:28;99638.59;;;13.56;87.06
76011;BME280;64701;43.536;1.478;2023-04-24T08:07:53;99635.31;;;13.60;87.65
76011;BME280;64701;43.536;1.478;2023-04-24T08:10:20;99631.03;;;13.53;86.39
76011;BME280;64701;43.536;1.478;2023-04-24T08:12:45;99635.31;;;13.60;86.64
76011;BME280;64701;43.536;1.478;2023-04-24T08:15:10;99629.97;;;13.67;87.30
76011;BME280;64701;43.536;1.478;2023-04-24T08:17:36;99635.50;;;13.65;86.83
76011;BME280;64701;43.536;1.478;2023-04-24T08:20:04;99636.09;;;13.74;86.23
76011;BME280;64701;43.536;1.478;2023-04-24T08:22:30;99634.00;;;13.89;86.38
76011;BME280;64701;43.536;1.478;2023-04-24T08:24:55;99639.06;;;14.10;86.25
76011;BME280;64701;43.536;1.478;2023-04-24T08:27:21;99632.25;;;14.14;83.56
76011;BME280;64701;43.536;1.478;2023-04-24T08:29:47;99634.53;;;14.17;83.28
76011;BME280;64701;43.536;1.478;2023-04-24T08:32:12;99634.94;;;14.14;83.40
76011;BME280;64701;43.536;1.478;2023-04-24T08:34:37;99640.91;;;14.10;83.54
76011;BME280;64701;43.536;1.478;2023-04-24T08:37:03;99629.06;;;13.99;83.07
76011;BME280;64701;43.536;1.478;2023-04-24T08:39:28;99631.06;;;14.10;84.04
76011;BME280;64701;43.536;1.478;2023-04-24T08:41:54;99624.88;;;14.23;84.44
76011;BME280;64701;43.536;1.478;2023-04-24T08:44:20;99619.28;;;14.31;83.81
76011;BME280;64701;43.536;1.478;2023-04-24T08:46:46;99619.88;;;14.33;82.38
76011;BME280;64701;43.536;1.478;2023-04-24T08:49:13;99621.91;;;14.44;81.82
76011;BME280;64701;43.536;1.478;2023-04-24T08:51:38;99617.97;;;14.53;81.79
76011;BME280;64701;43.536;1.478;2023-04-24T08:54:04;99614.44;;;14.59;80.41
76011;BME280;64701;43.536;1.478;2023-04-24T08:56:29;99620.91;;;14.70;80.11
76011;BME280;64701;43.536;1.478;2023-04-24T08:58:57;99629.91;;;14.76;78.50
76011;BME280;64701;43.536;1.478;2023-04-24T09:01:22;99625.97;;;14.78;77.97
76011;BME280;64701;43.536;1.478;2023-04-24T09:03:49;99624.56;;;14.76;78.24
76011;BME280;64701;43.536;1.478;2023-04-24T09:06:16;99625.38;;;14.76;77.09
76011;BME280;64701;43.536;1.478;2023-04-24T09:08:42;99628.44;;;14.80;77.40
76011;BME280;64701;43.536;1.478;2023-04-24T09:11:08;99633.50;;;14.88;76.59
76011;BME280;64701;43.536;1.478;2023-04-24T09:13:34;99612.22;;;14.81;75.99
76011;BME280;64701;43.536;1.478;2023-04-24T09:16:00;99620.94;;;14.95;77.60
76011;BME280;64701;43.536;1.478;2023-04-24T09:18:26;99624.13;;;15.03;77.67
76011;BME280;64701;43.536;1.478;2023-04-24T09:21:01;99626.75;;;15.10;76.98
76011;BME280;64701;43.536;1.478;2023-04-24T09:23:28;99619.72;;;15.16;74.79
76011;BME280;64701;43.536;1.478;2023-04-24T09:25:57;99618.66;;;15.23;74.10
76011;BME280;64701;43.536;1.478;2023-04-24T09:28:26;99612.53;;;15.41;74.71
76011;BME280;64701;43.536;1.478;2023-04-24T09:31:02;99616.13;;;15.53;72.99
76011;BME280;64701;43.536;1.478;2023-04-24T09:33:27;99610.72;;;15.60;72.41
76011;BME280;64701;43.536;1.478;2023-04-24T09:35:52;99615.66;;;15.56;70.39
76011;BME280;64701;43.536;1.478;2023-04-24T09:38:18;99612.44;;;15.54;70.61
76011;BME280;64701;43.536;1.478;2023-04-24T09:40:43;99613.69;;;15.45;71.15
76011;BME280;64701;43.536;1.478;2023-04-24T09:43:12;99615.09;;;15.54;71.08
76011;BME280;64701;43.536;1.478;2023-04-24T09:45:38;99621.69;;;15.70;71.13
76011;BME280;64701;43.536;1.478;2023-04-24T09:48:04;99611.91;;;15.82;71.76
76011;BME280;64701;43.536;1.478;2023-04-24T09:50:31;99619.63;;;15.72;69.60
76011;BME280;64701;43.536;1.478;2023-04-24T09:52:58;99621.25;;;15.73;70.44
76011;BME280;64701;43.536;1.478;2023-04-24T09:55:23;99623.63;;;15.81;71.78
76011;BME280;64701;43.536;1.478;2023-04-24T09:57:50;99623.69;;;15.74;69.57
76011;BME280;64701;43.536;1.478;2023-04-24T10:00:25;99633.19;;;15.70;70.03
76011;BME280;64701;43.536;1.478;2023-04-24T10:03:01;99621.63;;;15.58;69.92
76011;BME280;64701;43.536;1.478;2023-04-24T10:05:28;99624.88;;;15.60;71.32
76011;BME280;64701;43.536;1.478;2023-04-24T10:07:56;99621.63;;;15.58;71.37
76011;BME280;64701;43.536;1.478;2023-04-24T10:10:21;99626.66;;;15.66;73.26
76011;BME280;64701;43.536;1.478;2023-04-24T10:12:47;99637.72;;;15.70;73.16
76011;BME280;64701;43.536;1.478;2023-04-24T10:15:12;99626.50;;;15.79;73.20
76011;BME280;64701;43.536;1.478;2023-04-24T10:17:38;99630.59;;;15.82;72.84
76011;BME280;64701;43.536;1.478;2023-04-24T10:20:04;99628.44;;;15.90;73.47
76011;BME280;64701;43.536;1.478;2023-04-24T10:22:31;99628.28;;;16.04;73.08
76011;BME280;64701;43.536;1.478;2023-04-24T10:24:57;99619.81;;;16.25;72.08
76011;BME280;64701;43.536;1.478;2023-04-24T10:27:23;99624.50;;;16.41;71.26
76011;BME280;64701;43.536;1.478;2023-04-24T10:29:51;99612.19;;;16.40;67.47
76011;BME280;64701;43.536;1.478;2023-04-24T10:32:18;99613.91;;;16.64;69.47
76011;BME280;64701;43.536;1.478;2023-04-24T10:34:43;99608.97;;;16.80;66.95
76011;BME280;64701;43.536;1.478;2023-04-24T10:37:08;99603.25;;;16.88;65.07
76011;BME280;64701;43.536;1.478;2023-04-24T10:39:34;99605.28;;;17.04;66.73
76011;BME280;64701;43.536;1.478;2023-04-24T10:42:00;99600.03;;;17.32;66.25
76011;BME280;64701;43.536;1.478;2023-04-24T10:44:25;99596.56;;;17.43;61.97
76011;BME280;64701;43.536;1.478;2023-04-24T10:47:00;99597.00;;;17.64;61.69
76011;BME280;64701;43.536;1.478;2023-04-24T10:49:29;99600.47;;;17.76;64.38
76011;BME280;64701;43.536;1.478;2023-04-24T10:51:59;99594.31;;;17.87;64.39
76011;BME280;64701;43.536;1.478;2023-04-24T10:59:43;99583.25;;;17.72;61.03
76011;BME280;64701;43.536;1.478;2023-04-24T11:02:09;99593.16;;;17.60;61.50
76011;BME280;64701;43.536;1.478;2023-04-24T11:04:34;99597.00;;;17.64;64.67
76011;BME280;64701;43.536;1.478;2023-04-24T11:07:03;99594.31;;;17.64;62.73
76011;BME280;64701;43.536;1.478;2023-04-24T11:09:30;99594.78;;;17.49;61.26
76011;BME280;64701;43.536;1.478;2023-04-24T11:12:06;99603.66;;;17.49;63.56
76011;BME280;64701;43.536;1.478;2023-04-24T11:17:27;99603.88;;;17.36;63.67
76011;BME280;64701;43.536;1.478;2023-04-24T11:19:52;99597.13;;;17.22;61.85
76011;BME280;64701;43.536;1.478;2023-04-24T11:22:17;99595.38;;;17.16;63.05
76011;BME280;64701;43.536;1.478;2023-04-24T11:27:15;99593.88;;;17.20;62.10
76011;BME280;64701;43.536;1.478;2023-04-24T11:29:41;99593.41;;;17.35;63.72
76011;BME280;64701;43.536;1.478;2023-04-24T11:34:47;99589.56;;;17.42;62.21
76011;BME280;64701;43.536;1.478;2023-04-24T11:37:13;99581.63;;;17.47;63.07
76011;BME280;64701;43.536;1.478;2023-04-24T11:39:38;99575.34;;;17.53;63.26
76011;BME280;64701;43.536;1.478;2023-04-24T11:42:03;99571.53;;;17.61;62.36
76011;BME280;64701;43.536;1.478;2023-04-24T11:44:31;99572.22;;;17.57;61.39
76011;BME280;64701;43.536;1.478;2023-04-24T11:46:56;99578.13;;;17.59;62.53
76011;BME280;64701;43.536;1.478;2023-04-24T11:49:22;99573.16;;;17.62;63.30
76011;BME280;64701;43.536;1.478;2023-04-24T11:51:47;99569.66;;;17.62;61.19
76011;BME280;64701;43.536;1.478;2023-04-24T11:54:12;99573.03;;;17.69;63.02
76011;BME280;64701;43.536;1.478;2023-04-24T11:56:38;99563.47;;;17.73;62.96
76011;BME280;64701;43.536;1.478;2023-04-24T11:59:03;99566.97;;;17.73;61.65
76011;BME280;64701;43.536;1.478;2023-04-24T12:01:29;99559.25;;;17.77;61.36
76011;BME280;64701;43.536;1.478;2023-04-24T12:03:59;99567.97;;;17.84;62.71
76011;BME280;64701;43.536;1.478;2023-04-24T12:06:24;99564.44;;;17.95;62.41
76011;BME280;64701;43.536;1.478;2023-04-24T12:08:50;99572.09;;;18.03;62.78
76011;BME280;64701;43.536;1.478;2023-04-24T12:11:17;99577.13;;;18.28;64.02
76011;BME280;64701;43.536;1.478;2023-04-24T12:13:43;99570.72;;;18.57;64.31
76011;BME280;64701;43.536;1.478;2023-04-24T12:16:08;99560.34;;;18.94;62.58
76011;BME280;64701;43.536;1.478;2023-04-24T12:18:34;99561.56;;;19.25;63.27
76011;BME280;64701;43.536;1.478;2023-04-24T12:21:22;99556.53;;;19.45;61.22
76011;BME280;64701;43.536;1.478;2023-04-24T12:23:47;99557.19;;;19.36;58.56
76011;BME280;64701;43.536;1.478;2023-04-24T12:26:19;99553.00;;;19.45;58.12
76011;BME280;64701;43.536;1.478;2023-04-24T12:28:46;99540.34;;;19.62;57.36
76011;BME280;64701;43.536;1.478;2023-04-24T12:31:11;99548.97;;;19.64;57.55
76011;BME280;64701;43.536;1.478;2023-04-24T12:33:37;99550.44;;;19.72;58.22
76011;BME280;64701;43.536;1.478;2023-04-24T12:36:03;99553.53;;;19.85;57.24
76011;BME280;64701;43.536;1.478;2023-04-24T12:38:30;99559.19;;;20.11;58.58
76011;BME280;64701;43.536;1.478;2023-04-24T12:41:05;99555.06;;;20.25;56.92
76011;BME280;64701;43.536;1.478;2023-04-24T12:43:30;99561.16;;;20.42;58.42
76011;BME280;64701;43.536;1.478;2023-04-24T12:45:56;99550.28;;;20.32;57.20
76011;BME280;64701;43.536;1.478;2023-04-24T12:48:22;99546.38;;;20.18;55.88
76011;BME280;64701;43.536;1.478;2023-04-24T12:50:47;99552.03;;;20.43;57.97
76011;BME280;64701;43.536;1.478;2023-04-24T12:53:13;99556.34;;;20.22;57.13
76011;BME280;64701;43.536;1.478;2023-04-24T12:55:38;99553.75;;;20.06;56.18
76011;BME280;64701;43.536;1.478;2023-04-24T12:58:03;99555.88;;;20.52;60.46
76011;BME280;64701;43.536;1.478;2023-04-24T13:00:29;99539.78;;;21.26;57.80
76011;BME280;64701;43.536;1.478;2023-04-24T13:02:54;99535.13;;;21.69;56.25
76011;BME280;64701;43.536;1.478;2023-04-24T13:05:20;99528.75;;;21.95;56.20